PDT,Max TemperatureF,Mean TemperatureF,Min TemperatureF,Max Dew PointF,MeanDew PointF,Min DewpointF,Max Humidity, Mean Humidity, Min Humidity, Max Sea Level PressureIn, Mean Sea Level PressureIn, Min Sea Level PressureIn, Max VisibilityMiles, Mean VisibilityMiles, Min VisibilityMiles, Max Wind SpeedMPH, Mean Wind SpeedMPH, Max Gust SpeedMPH,PrecipitationIn, CloudCover, Events, WindDirDegrees
2012-10-1,76,62,48,37,32,26,54,38,21,30.28,30.13,29.89,10,10,7,18,10,22,0.00,4,,191
2012-10-2,71,56,41,45,30,13,71,45,18,30.17,29.96,29.87,10,10,10,29,13,36,0.00,1,,268
2012-10-3,59,48,36,30,27,18,70,50,30,30.45,30.37,30.21,10,10,10,18,7,23,0.00,1,,47
2012-10-4,58,48,37,27,21,12,64,41,17,30.34,30.32,30.29,10,10,10,20,8,25,0.00,1,,42
2012-10-5,59,46,32,23,19,15,63,41,19,30.42,30.36,30.32,10,10,10,14,5,18,0.00,0,,41
2012-10-6,62,46,30,27,21,17,69,45,20,30.38,30.31,30.22,10,10,10,10,3,14,0.00,0,,38
2012-10-7,68,50,32,26,23,19,64,41,18,30.21,30.11,29.98,10,10,10,13,4,16,0.00,2,,217
2012-10-8,69,55,40,29,25,22,57,38,18,29.99,29.94,29.88,10,10,9,15,7,18,0.00,3,,202
2012-10-9,67,53,39,37,30,24,59,44,28,30.09,30.04,29.97,10,10,10,12,2,14,0.00,2,,182
2012-10-10,70,56,41,35,32,30,70,48,25,30.01,29.93,29.86,10,10,7,14,3,16,0.00,0,,150
2012-10-11,71,56,41,39,35,30,82,55,28,30.00,29.91,29.80,10,10,10,12,3,15,0.00,1,,56
2012-10-12,64,52,40,46,36,32,83,59,34,29.92,29.83,29.78,10,10,9,17,8,22,T,5,,188
2012-10-13,59,54,49,50,48,47,100,81,62,30.18,30.08,29.94,10,9,3,21,13,25,0.03,7,Rain,206
2012-10-14,66,58,50,52,48,43,93,68,42,30.17,30.03,29.90,10,10,10,25,14,33,0.03,8,Rain,191
2012-10-15,65,59,53,55,51,48,100,78,56,29.92,29.81,29.56,10,9,2,28,14,35,0.36,8,Rain,200
2012-10-16,59,49,39,56,37,25,70,58,46,30.08,29.73,29.43,10,10,10,40,25,47,T,3,,241
2012-10-17,53,43,33,33,30,26,89,64,38,30.30,30.24,30.09,10,10,10,17,8,25,0.00,3,,195
2012-10-18,62,50,37,35,30,23,82,52,21,30.29,30.13,29.85,10,10,10,13,4,17,0.00,6,,112
2012-10-19,61,55,48,48,43,32,80,64,48,29.85,29.73,29.60,10,10,9,31,17,38,0.02,7,Rain,201
2012-10-20,50,43,35,42,29,20,82,56,29,29.85,29.76,29.63,10,10,10,31,16,37,0.00,3,,220
2012-10-21,47,39,30,35,31,28,96,73,49,29.94,29.89,29.86,10,10,7,17,7,22,0.04,5,Rain,159
2012-10-22,44,38,32,36,33,30,96,77,58,29.86,29.67,29.53,10,9,4,21,10,25,0.18,7,Rain,64
2012-10-23,43,38,32,36,33,30,96,82,67,29.98,29.84,29.66,10,10,7,16,7,22,T,6,Rain,177
2012-10-24,44,37,30,36,33,28,100,84,67,30.16,30.02,29.94,10,6,0,12,5,16,0.03,7,Fog-Rain,88
2012-10-25,42,38,33,36,34,31,100,87,73,30.45,30.31,30.11,10,9,2,12,6,15,0.01,8,Rain,220
2012-10-26,37,34,30,35,33,29,100,93,85,30.43,30.26,30.11,10,8,4,10,4,13,0.08,8,Fog-Rain-Snow,136
2012-10-27,43,40,36,40,38,35,100,95,89,30.10,30.01,29.86,10,5,0,15,7,17,0.15,8,Rain,175
2012-10-28,52,47,42,47,46,42,100,92,83,29.93,29.89,29.83,10,7,0,20,7,24,0.12,8,Fog-Rain,195
2012-10-29,63,55,46,52,48,43,100,78,56,30.02,29.89,29.80,10,9,1,33,15,39,0.28,6,Rain,205
2012-10-30,57,52,47,51,47,43,100,84,67,30.02,29.94,29.90,10,10,7,16,7,18,0.17,8,Rain,169
2012-10-31,58,54,49,52,49,45,100,86,71,29.89,29.81,29.71,10,7,0,15,7,17,0.04,8,Rain,61